createdAt,value
2023-03-01T00:03:00.429Z,-4.99
2023-03-01T00:08:03.084Z,-5.00
2023-03-01T00:13:06.190Z,-5.04
2023-03-01T00:18:10.172Z,-5.02
2023-03-01T00:23:12.742Z,-5.01
2023-03-01T00:28:15.757Z,-4.99
2023-03-01T00:33:20.295Z,-5.03
2023-03-01T00:38:22.889Z,-5.13
2023-03-01T00:43:25.467Z,-5.18
2023-03-01T00:48:29.430Z,-5.28
2023-03-01T00:53:32.021Z,-5.31
2023-03-01T00:58:35.557Z,-5.38
2023-03-01T01:03:39.525Z,-5.47
2023-03-01T01:08:42.197Z,-5.57
2023-03-01T01:13:47.118Z,-5.54
2023-03-01T01:18:51.778Z,-5.53
2023-03-01T01:23:54.742Z,-5.58
2023-03-01T01:28:58.550Z,-5.67
2023-03-01T01:34:03.805Z,-5.79
2023-03-01T01:39:06.840Z,-5.82
2023-03-01T01:44:16.014Z,-5.84
2023-03-01T01:49:26.887Z,-5.99
2023-03-01T01:54:35.722Z,-6.03
2023-03-01T01:59:39.316Z,-6.05
2023-03-01T02:04:43.346Z,-6.08
2023-03-01T02:09:49.366Z,-6.11
2023-03-01T02:14:52.174Z,-6.07
2023-03-01T02:20:09.665Z,-5.99
2023-03-01T02:25:28.245Z,-6.04
2023-03-01T02:30:34.262Z,-6.06
2023-03-01T02:35:40.647Z,-6.12
2023-03-01T02:40:45.049Z,-6.20
2023-03-01T02:45:52.611Z,-6.29
2023-03-01T02:51:06.367Z,-6.37
2023-03-01T02:56:13.939Z,-6.26
2023-03-01T03:01:17.936Z,-6.10
2023-03-01T03:06:20.669Z,-6.12
2023-03-01T03:11:23.355Z,-6.20
2023-03-01T03:16:27.487Z,-6.26
2023-03-01T03:21:30.224Z,-6.30
2023-03-01T03:26:34.151Z,-6.38
2023-03-01T03:31:38.201Z,-6.38
2023-03-01T03:36:40.852Z,-6.43
2023-03-01T03:41:43.424Z,-6.45
2023-03-01T03:46:47.434Z,-6.45
2023-03-01T03:51:50.067Z,-6.47
2023-03-01T03:56:52.610Z,-6.44
2023-03-01T04:01:56.731Z,-6.46
2023-03-01T04:06:59.401Z,-6.39
2023-03-01T04:12:01.991Z,-6.34
2023-03-01T04:17:06.278Z,-6.38
2023-03-01T04:22:10.346Z,-6.42
2023-03-01T04:27:13.652Z,-6.44
2023-03-01T04:32:18.757Z,-6.37
2023-03-01T04:37:21.467Z,-6.37
2023-03-01T04:42:24.035Z,-6.41
2023-03-01T04:47:28.052Z,-6.44
2023-03-01T04:52:30.713Z,-6.44
2023-03-01T04:57:33.497Z,-6.46
2023-03-01T05:02:37.438Z,-6.51
2023-03-01T05:07:40.013Z,-6.45
2023-03-01T05:12:42.641Z,-6.44
2023-03-01T05:17:47.201Z,-6.46
2023-03-01T05:22:49.885Z,-6.44
2023-03-01T05:27:52.973Z,-6.44
2023-03-01T05:32:57.127Z,-6.44
2023-03-01T05:37:59.722Z,-6.53
2023-03-01T05:43:02.864Z,-6.56
2023-03-01T05:48:07.572Z,-6.52
2023-03-01T05:53:13.345Z,-6.53
2023-03-01T05:58:19.191Z,-6.57
2023-03-01T06:03:23.280Z,-6.56
2023-03-01T06:08:28.140Z,-6.58
2023-03-01T06:13:30.833Z,-6.62
2023-03-01T06:18:34.827Z,-6.66
2023-03-01T06:23:37.726Z,-6.59
2023-03-01T06:28:40.388Z,-6.50
2023-03-01T06:33:45.611Z,-6.42
2023-03-01T06:38:48.196Z,-6.31
2023-03-01T06:43:50.850Z,-6.18
2023-03-01T06:48:54.808Z,-6.06
2023-03-01T06:53:57.653Z,-5.92
2023-03-01T06:59:01.072Z,-5.71
2023-03-01T07:04:05.225Z,-5.46
2023-03-01T07:09:07.890Z,-5.27
2023-03-01T07:14:10.557Z,-5.06
2023-03-01T07:19:14.622Z,-4.83
2023-03-01T07:24:18.277Z,-4.48
2023-03-01T07:29:20.788Z,-3.16
2023-03-01T07:34:24.702Z,-2.01
2023-03-01T07:39:27.403Z,-0.71
2023-03-01T07:44:30.214Z,2.43
2023-03-01T07:49:34.190Z,4.48
2023-03-01T07:54:37.066Z,5.36
2023-03-01T07:59:39.670Z,5.27
2023-03-01T08:04:43.652Z,5.97
2023-03-01T08:09:46.284Z,6.65
2023-03-01T08:14:48.872Z,7.66
2023-03-01T08:19:52.858Z,8.11
2023-03-01T08:24:56.746Z,8.20
2023-03-01T08:29:59.326Z,8.85
2023-03-01T08:35:03.255Z,8.98
2023-03-01T08:40:08.143Z,9.79
2023-03-01T08:45:12.329Z,9.66
2023-03-01T08:50:16.882Z,9.79
2023-03-01T08:55:19.418Z,9.94
2023-03-01T09:00:24.128Z,9.24
2023-03-01T09:05:28.141Z,9.79
2023-03-01T09:10:30.798Z,10.04
2023-03-01T09:15:34.409Z,10.75
2023-03-01T09:20:38.409Z,10.44
2023-03-01T09:25:41.049Z,11.46
2023-03-01T09:30:44.683Z,11.23
2023-03-01T09:35:48.933Z,11.31
2023-03-01T09:40:51.696Z,12.09
2023-03-01T09:45:57.837Z,11.75
2023-03-01T09:51:09.196Z,12.02
2023-03-01T09:56:21.952Z,11.64
2023-03-01T10:01:35.616Z,11.53
2023-03-01T10:06:43.427Z,11.92
2023-03-01T10:11:50.678Z,11.07
2023-03-01T10:16:58.976Z,11.51
2023-03-01T10:22:07.326Z,12.52
2023-03-01T10:27:14.724Z,12.67
2023-03-01T10:32:19.145Z,12.78
2023-03-01T10:37:25.738Z,12.38
2023-03-01T10:42:31.072Z,12.26
2023-03-01T10:47:33.692Z,11.98
2023-03-01T10:52:39.670Z,12.02
2023-03-01T10:57:43.078Z,11.45
2023-03-01T11:02:45.773Z,11.95
2023-03-01T11:07:54.447Z,12.22
2023-03-01T11:13:09.140Z,11.93
2023-03-01T11:18:26.617Z,12.70
2023-03-01T11:23:35.479Z,12.35
2023-03-01T11:28:42.128Z,11.85
2023-03-01T11:33:50.155Z,12.08
2023-03-01T11:38:56.668Z,11.50
2023-03-01T11:44:03.059Z,11.34
2023-03-01T11:49:17.151Z,11.29
2023-03-01T11:54:31.772Z,11.63
2023-03-01T11:59:51.858Z,11.40
2023-03-01T12:05:11.141Z,11.80
2023-03-01T12:10:28.004Z,11.46
2023-03-01T12:15:47.361Z,11.80
2023-03-01T12:21:00.790Z,11.23
2023-03-01T12:26:14.268Z,11.06
2023-03-01T12:31:40.818Z,11.21
2023-03-01T12:36:59.569Z,10.96
2023-03-01T12:42:14.290Z,11.63
2023-03-01T12:47:28.587Z,11.64
2023-03-01T12:52:39.278Z,11.17
2023-03-01T12:57:49.108Z,11.45
2023-03-01T13:02:57.142Z,11.75
2023-03-01T13:08:08.005Z,11.97
2023-03-01T13:13:21.090Z,11.62
2023-03-01T13:18:34.214Z,11.64
2023-03-01T13:23:42.478Z,11.63
2023-03-01T13:28:52.431Z,11.53
2023-03-01T13:33:55.721Z,11.97
2023-03-01T13:38:59.320Z,11.35
2023-03-01T13:44:03.318Z,11.42
2023-03-01T13:49:06.107Z,10.99
2023-03-01T13:54:14.307Z,11.41
2023-03-01T13:59:21.038Z,10.94
2023-03-01T14:04:26.773Z,11.33
2023-03-01T14:09:32.571Z,10.70
2023-03-01T14:14:57.827Z,9.34
2023-03-01T14:20:04.211Z,8.92
2023-03-01T14:25:18.559Z,8.60
2023-03-01T14:30:25.910Z,8.55
2023-03-01T14:35:31.594Z,8.61
2023-03-01T14:40:37.024Z,8.70
2023-03-01T14:45:41.511Z,8.43
2023-03-01T14:50:46.434Z,8.47
2023-03-01T14:55:52.777Z,8.82
2023-03-01T15:00:59.681Z,8.81
2023-03-01T15:06:03.616Z,8.29
2023-03-01T15:11:19.408Z,8.00
2023-03-01T15:16:25.275Z,8.29
2023-03-01T15:21:31.581Z,8.31
2023-03-01T15:26:39.734Z,8.37
2023-03-01T15:31:43.747Z,8.15
2023-03-01T15:36:50.993Z,7.93
2023-03-01T15:41:53.577Z,7.55
2023-03-01T15:46:58.727Z,7.32
2023-03-01T15:52:04.462Z,7.26
2023-03-01T15:57:07.016Z,7.75
2023-03-01T16:02:13.601Z,7.88
2023-03-01T16:07:16.608Z,7.04
2023-03-01T16:12:21.470Z,6.32
2023-03-01T16:17:26.811Z,5.95
2023-03-01T16:22:30.086Z,5.66
2023-03-01T16:27:32.624Z,5.40
2023-03-01T16:32:39.860Z,5.11
2023-03-01T16:37:43.151Z,4.86
2023-03-01T16:42:45.961Z,4.65
2023-03-01T16:47:49.912Z,4.46
2023-03-01T16:52:52.688Z,4.21
2023-03-01T16:57:55.240Z,3.97
2023-03-01T17:02:59.263Z,3.82
2023-03-01T17:08:01.900Z,3.52
2023-03-01T17:13:04.652Z,3.29
2023-03-01T17:18:09.378Z,3.04
2023-03-01T17:23:12.020Z,2.76
2023-03-01T17:28:15.651Z,2.62
2023-03-01T17:33:20.058Z,2.38
2023-03-01T17:38:22.695Z,2.12
2023-03-01T17:43:25.240Z,1.81
2023-03-01T17:48:29.203Z,1.67
2023-03-01T17:53:31.863Z,1.36
2023-03-01T17:58:35.178Z,1.14
2023-03-01T18:03:39.157Z,1.21
2023-03-01T18:08:42.245Z,1.18
2023-03-01T18:13:45.626Z,1.07
2023-03-01T18:18:54.315Z,0.95
2023-03-01T18:23:57.234Z,0.83
2023-03-01T18:29:01.230Z,0.84
2023-03-01T18:34:05.503Z,0.85
2023-03-01T18:39:09.451Z,0.96
2023-03-01T18:44:12.057Z,1.13
2023-03-01T18:49:16.629Z,1.12
2023-03-01T18:54:19.514Z,1.15
2023-03-01T18:59:22.118Z,1.01
2023-03-01T19:04:27.257Z,0.89
2023-03-01T19:09:29.986Z,0.81
2023-03-01T19:14:32.844Z,0.58
2023-03-01T19:19:36.928Z,0.43
2023-03-01T19:24:39.607Z,0.41
2023-03-01T19:29:42.408Z,0.36
2023-03-01T19:34:46.730Z,0.05
2023-03-01T19:39:49.400Z,-0.19
2023-03-01T19:44:52.966Z,-0.18
2023-03-01T19:49:57.358Z,-0.27
2023-03-01T19:55:08.880Z,-0.24
2023-03-01T20:00:13.009Z,-0.16
2023-03-01T20:05:17.180Z,-0.11
2023-03-01T20:10:20.009Z,-0.12
2023-03-01T20:15:22.729Z,-0.06
2023-03-01T20:20:26.608Z,-0.13
2023-03-01T20:25:29.163Z,-0.29
2023-03-01T20:30:31.942Z,-0.28
2023-03-01T20:35:36.169Z,-0.33
2023-03-01T20:40:39.075Z,-0.45
2023-03-01T20:45:42.025Z,-0.43
2023-03-01T20:50:46.057Z,-0.52
2023-03-01T20:55:48.937Z,-0.64
2023-03-01T21:00:52.749Z,-0.67
2023-03-01T21:05:58.127Z,-0.61
2023-03-01T21:11:00.712Z,-0.70
2023-03-01T21:16:05.276Z,-0.60
2023-03-01T21:21:11.238Z,-0.74
2023-03-01T21:26:15.960Z,-0.82
2023-03-01T21:31:20.585Z,-0.95
2023-03-01T21:36:25.848Z,-0.91
2023-03-01T21:41:29.984Z,-0.96
2023-03-01T21:46:36.573Z,-0.93
2023-03-01T21:51:40.588Z,-0.96
2023-03-01T21:56:44.233Z,-0.84
2023-03-01T22:01:47.192Z,-0.69
2023-03-01T22:06:54.301Z,-0.65
2023-03-01T22:12:02.161Z,-0.65
2023-03-01T22:17:05.098Z,-0.46
2023-03-01T22:22:09.160Z,-0.45
2023-03-01T22:27:11.871Z,-0.45
2023-03-01T22:32:14.649Z,-0.52
2023-03-01T22:37:18.800Z,-0.66
2023-03-01T22:42:21.498Z,-0.71
2023-03-01T22:47:24.156Z,-0.64
2023-03-01T22:52:28.197Z,-0.64
2023-03-01T22:57:30.923Z,-0.62
2023-03-01T23:02:34.764Z,-0.65
2023-03-01T23:07:38.922Z,-0.68
2023-03-01T23:12:42.255Z,-0.71
2023-03-01T23:17:44.936Z,-0.76
2023-03-01T23:22:48.968Z,-0.77
2023-03-01T23:27:51.616Z,-0.79
2023-03-01T23:32:54.338Z,-0.64
2023-03-01T23:37:58.381Z,-0.63
2023-03-01T23:43:01.083Z,-0.55
2023-03-01T23:48:03.998Z,-0.50
2023-03-01T23:53:08.180Z,-0.48
2023-03-01T23:58:10.759Z,-0.49
